West Liberty, IL

07:25 AM CDT del 24 Luglio 2014 (GMT -0500)
Olney-Noble (KOLY) Alt. 482 ft | 38.72 °N, 88.18 °W | Change Station

Current weather conditions updated 10 minutes ago

Mostly Cloudy
Molto nuvoloso
55 °F
Sembra 55 °F
N
6
Vento Variabile Vento da Nord

Oggi non si prevedono cambiamenti consistenti della temperatura rispetto a ieri.

Oggi
Massima -- | Minima -- °F
--% Possibilità di precip.
Ieri
Massima -- | Minima -- °F
Precip. -- in
5:46 AM 8:10 PM
Luna calante, 5% visible
Pressione 30.10 in
Visibilità 10.0 miglia
Nuvole Molto nuvoloso 4500 ft
Punto di rugiada 54 °F
Umidità 94%
Piovosità 0.00 in
Spessore del manto nevoso Non disponibile.
Raggi UV 1 fuori da 12
Polline 4.90 fuori da 12
Qualità dell'aria Non disponibile.
Flu Activity Non disponibile.
METAR KOLY 241215Z AUTO 35005KT 10SM BKN045 13/12 A3010 RMK AO2

More Conditions Fewer Conditions

Pressione 30.10 in
Visibilità 10.0 miglia
Nuvole Molto nuvoloso 4500 ft
Punto di rugiada 54 °F
Umidità 94%
Piovosità 0.00 in
Spessore del manto nevoso Non disponibile.
Raggi UV 1 fuori da 12
Polline 4.90 fuori da 12
Qualità dell'aria Non disponibile.
Flu Activity Non disponibile.
METAR KOLY 241215Z AUTO 35005KT 10SM BKN045 13/12 A3010 RMK AO2

More Conditions Fewer Conditions

10-Day Weather Forecast

Almanac

Astronomia

Jul. 24, 2014 Alba Tramonto
Ora attuale 05:46 CDT 20:10 CDT
Crepuscolo civile 05:16 CDT 20:41 CDT
Crepuscolo nautico 04:38 CDT 21:18 CDT
Crepuscolo astronomico 03:56 CDT 22:00 CDT
Luna 03:53 CDT 18:26 CDT
Estensione della luce visibile 15h 25m
Lunghezza del giorno
14h 24m
Tomorrow will be 1m 39s shorter.
Luna calante, 5% of the Moon is Illuminated
Oggi
Luna calante
Lug 26
Nuovo
Ago 3
Primo quarto
Ago 10
Luna piena
Ago 17
Ultimo quarto

Gli estremi di oggi

State Highs State Lows

Community

WunderPhotos

Upload Photos

1,736,988 foto caricate!

Nearby

Profondità neve

Stazione Profondità Altitudine
Non sono state evidenziate nuove nevicate

Attività sismica

Città  Distanza Mag. Data & Ora
Non sono state riportate attività sismiche nelle vicinanze.
Minimo Magnitudo Mostrato è 2.5.

Temperature delle acque costiere

Località Temperatura
Nessun dato dalle stazioni

Stazioni meteo nelle vicinanze

Ubicazione della stazione Temp. Punto di rugiada Umidità Vento Precip. Alt. Aggiornato Tipo
Newton, Newton, IL 57.8 °F 55 °F 90% NE  a  5.0 mph 0.00 in / hr 546 ft 7:22 AM CDT Normale
North East Olney, Il, Olney, IL 59.7 °F 59 °F 98% ENE  a  0.0 mph - / hr 479 ft 7:25 AM CDT Normale
Westlake, Robinson, IL 59.2 °F 57 °F 92% ENE  a  2.0 mph 0.00 in / hr 525 ft 7:24 AM CDT Sequenza Rapida
Parkersburg/Wynoose, Olney, IL 59.8 °F 57 °F 91% Nord  a  4.0 mph 0.00 in / hr 418 ft 7:24 AM CDT Normale
Red Brush, Louisville, IL 58.3 °F 55 °F 89% NNE  a  3.0 mph 0.00 in / hr 482 ft 7:24 AM CDT Normale

Show More Stations Show Fewer Stations